Etusivu
METAR-TAF:

METAR-TAF

Lentoasemat :

Blacksburg, Virginia, Yhdysvallat

Leveyspiiri: 37-13N, Pituuspiiri: 080-25W, korkeus merenpinnasta: 650 m

Tämänhetkinen sää

Tämä raportti tehtiin 19 minuuttia sitten, kello 08.15 UTC
Tuuli 5 kn luoteesta
Lämpötila 1°C
Kosteus 86%
Ilmanpaine 1014 hPa
Näkyvyys: 16.1 km
Pilvistä 1900 ft:n korkeudessa

METAR: KBCB 280815Z AUTO 31005KT 10SM OVC019 01/M01 A2993 RMK AO2 T00141012

Aika: 03:34 (08:34 UTC)

Sääennuste

Tämä raportti tehtiin 2 tuntia ja 54 minuuttia sitten, kello 05.40 UTC
Ennuste voimassa 28. päivästä klo 06 UTC - 29. päivään klo 06 UTC
Tuuli 11 kn lännestä/luoteesta puuskistuen 19 kn:hen
Näkyvyys: 10 km
Pilvistä 2500 ft:n korkeudessa
From 28. päivästä klo 1700 UTC
Tuuli 10 kn lännestä/luoteesta puuskistuen 20 kn:hen
Näkyvyys: 10 km
Hajonneita pilviä 3000 ft:n korkeudessa

TAF: KBCB 280540Z 2806/2906 30011G19KT P6SM OVC025 FM281700 30010G20KT P6SM BKN030

Säähavainnot ja -ennusteet yli 4000 lentoasemalta (METAR- ja TAF-raportit).

Käytössä olevat sääasemat on merkitty karttaan keltaisilla ja punaisilla pisteillä.

Aseta hiiri pisteen päälle nähdäksesi sääaseman nimen.

Klikkaa sitten nähdäksesi säähavainnot ja -ennusteet.

Kartan vaihtaminen: klikkaa mustalla rastilla varustettuja vihreitä pisteitä, niin voit zoomata sisään; viivalla varustettua vihreää pistettä, niin voit zoomata ulos tai vihreitä nuolia, niin pääset viereisille kartoille.


METAR-TAF: